Latest Weather Observations for Warragul (Nilma North)

IDV60801

Issued at 4:05 pm EDT Monday 24 November 2014 (issued every 30 minutes, with the page automatically refreshed every 10 minutes)

About weather observations | Map of weather stations | Latest weather observations for VIC | Other Formats
Station Details ID: 085313 Name: NILMA NORTH (WARRAGUL) Lat: -38.13 Lon: 145.99 Height: 134.11 m
Data from the previous 72 hours. | See also: Recent months for locations in Victoria
Date/Time
EDT
Temp
°C
App
Temp
°C
Dew
Point
Rel
Hum
%
Delta-T
°C
Wind Press
QNH
hPa
Press
MSL
hPa
Rain
since 9 am
mm
Dir
 
Spd
km/h
Gust
km/h
Spd
kts
Gust
kts
24/04:00pm 19.4 21.5 18.2 93 0.7 NNW 4 11 2 6 1005.1 1004.9 6.6
24/03:30pm 17.7 18.8 17.1 96 0.4 ENE 7 9 4 5 1005.3 1005.1 6.6
24/03:00pm 17.1 17.1 16.3 95 0.5 E 11 15 6 8 1005.5 1005.3 6.0
24/02:30pm 17.4 17.8 16.4 94 0.6 E 9 15 5 8 1006.4 1006.2 5.8
24/02:07pm 17.4 18.3 16.6 95 0.5 N 7 17 4 9 1006.0 1005.8 5.6
24/02:00pm 17.1 18.0 16.1 94 0.6 W 6 7 3 4 1008.0 1007.8 5.4
24/01:30pm 16.6 16.8 15.8 95 0.5 N 9 22 5 12 1006.2 1006.0 5.0
24/01:27pm 16.8 17.7 16.0 95 0.5 W 6 13 3 7 1007.2 1007.0 4.8
24/01:00pm 16.4 17.5 15.6 95 0.5 WSW 4 7 2 4 1009.2 1009.0 4.2
24/12:30pm 16.1 17.4 15.1 94 0.6 SSW 2 6 1 3 1009.1 1008.9 2.6
24/12:00pm 16.0 17.2 14.9 93 0.6 WNW 2 4 1 2 1009.5 1009.3 1.2
24/11:30am 15.7 16.5 14.7 94 0.6 WSW 4 9 2 5 1009.9 1009.7 1.2
24/11:00am 15.4 16.0 14.3 93 0.6 NW 4 6 2 3 1009.6 1009.4 1.2
24/10:30am 15.1 13.9 14.0 93 0.6 W 13 20 7 11 1010.1 1009.9 0.8
24/10:00am 14.8 14.6 13.7 93 0.6 W 7 15 4 8 1010.1 1009.9 0.6
24/09:30am 14.7 14.8 12.7 88 1.1 SE 4 9 2 5 1009.7 1009.5 0.0
24/09:00am 14.2 13.5 12.1 87 1.1 SE 7 15 4 8 1008.6 1008.4 0.0
24/08:30am 13.8 11.9 11.8 88 1.1 ENE 13 24 7 13 1008.2 1008.0 0.0
24/08:00am 14.0 11.2 11.5 85 1.3 E 17 28 9 15 1008.4 1008.2 0.0
24/07:30am 14.0 12.6 11.0 82 1.6 E 9 17 5 9 1009.1 1008.9 0.0
24/07:00am 13.7 11.4 10.5 81 1.7 E 13 19 7 10 1009.3 1009.1 0.0
24/06:30am 13.7 12.1 10.1 79 1.9 E 9 17 5 9 1009.4 1009.2 0.0
24/06:00am 13.7 10.1 9.7 77 2.1 E 19 33 10 18 1008.8 1008.6 0.0
24/05:30am 13.5 10.5 9.4 76 2.1 E 15 24 8 13 1008.9 1008.7 0.0
24/05:00am 13.1 10.6 9.7 80 1.8 E 13 20 7 11 1009.1 1008.9 0.0
24/04:30am 12.7 11.3 9.5 81 1.6 E 7 11 4 6 1009.5 1009.3 0.0
24/04:00am 12.8 11.4 9.4 80 1.7 E 7 13 4 7 1009.6 1009.4 0.0
24/03:30am 13.1 11.3 9.5 79 1.8 E 9 17 5 9 1010.0 1009.8 0.0
24/03:00am 13.3 11.5 9.5 78 2.0 E 9 17 5 9 1010.7 1010.5 0.0
24/02:30am 13.4 11.6 9.6 78 2.0 E 9 15 5 8 1011.1 1010.9 0.0
24/02:00am 13.5 11.8 9.9 79 1.9 E 9 15 5 8 1011.6 1011.4 0.0
24/01:30am 14.0 12.7 10.0 77 2.1 E 7 13 4 7 1012.4 1012.3 0.0
24/01:00am 14.1 12.5 10.1 77 2.1 E 9 17 5 9 1012.8 1012.7 0.0
24/12:30am 14.4 12.4 10.2 76 2.2 E 11 17 6 9 1012.7 1012.6 0.0
24/12:00am 14.8 12.4 10.2 74 2.4 E 13 24 7 13 1012.9 1012.8 0.0
 
Date/Time
EDT
Temp
°C
App
Temp
°C
Dew
Point
Rel
Hum
%
Delta-T
°C
Wind Press
QNH
hPa
Press
MSL
hPa
Rain
since 9 am
mm
Dir
 
Spd
km/h
Gust
km/h
Spd
kts
Gust
kts
23/11:30pm 15.2 12.6 10.6 74 2.4 E 15 22 8 12 1013.3 1013.2 0.0
23/11:00pm 15.5 13.0 10.9 74 2.5 ESE 15 24 8 13 1013.6 1013.4 0.0
23/10:30pm 16.0 14.2 12.0 77 2.2 E 13 20 7 11 1013.3 1013.2 0.0
23/10:00pm 16.8 15.0 12.1 74 2.6 E 13 22 7 12 1013.1 1013.0 0.0
23/09:30pm 17.4 16.9 12.5 73 2.7 E 7 11 4 6 1013.8 1013.6 0.0
23/09:00pm 18.1 17.0 13.0 72 2.9 E 11 19 6 10 1013.6 1013.4 0.0
23/08:30pm 18.5 18.3 12.9 70 3.2 E 6 9 3 5 1013.6 1013.4 0.0
23/08:00pm 19.1 19.9 13.7 71 3.1 SE 2 7 1 4 1013.7 1013.5 0.0
23/07:30pm 19.5 19.5 12.3 63 4.0 S 4 7 2 4 1013.2 1013.1 0.0
23/07:00pm 20.3 20.3 12.3 60 4.5 S 4 6 2 3 1013.0 1012.9 0.0
23/06:30pm 20.4 20.2 12.9 62 4.3 S 6 9 3 5 1012.6 1012.5 0.0
23/06:00pm 20.9 20.5 13.1 61 4.5 SSW 7 11 4 6 1012.3 1012.2 0.0
23/05:30pm 21.4 21.1 13.3 60 4.7 SSW 7 13 4 7 1012.2 1012.1 0.0
23/05:00pm 22.7 21.9 15.0 61 4.6 S 13 19 7 10 1011.8 1011.6 0.0
23/04:30pm 22.5 21.4 15.4 64 4.3 S 15 20 8 11 1011.0 1010.8 0.0
23/04:00pm 24.3 25.0 15.5 58 5.3 WSW 6 13 3 7 1010.7 1010.5 0.0
23/03:30pm 24.2 24.3 15.4 58 5.3 W 9 15 5 8 1010.6 1010.4 0.0
23/03:00pm 24.4 25.4 15.3 57 5.5 SSW 4 7 2 4 1010.5 1010.3 0.0
23/02:30pm 24.1 24.8 15.6 59 5.2 W 6 13 3 7 1010.4 1010.2 0.0
23/02:00pm 23.6 24.9 17.6 69 3.8 SSW 7 15 4 8 1010.7 1010.5 0.0
23/01:30pm 23.4 24.1 15.5 61 4.8 SW 6 13 3 7 1010.9 1010.7 0.0
23/01:00pm 22.7 23.2 15.5 64 4.3 SSW 7 15 4 8 1011.2 1011.0 0.0
23/12:30pm 22.4 22.4 14.3 60 4.8 WSW 7 13 4 7 1011.4 1011.2 0.0
23/12:00pm 22.0 22.3 14.4 62 4.5 SSW 6 11 3 6 1011.7 1011.5 0.0
23/11:30am 21.7 22.1 15.3 67 3.8 W 7 13 4 7 1011.9 1011.7 0.0
23/11:00am 20.6 20.7 14.0 66 3.8 WSW 6 11 3 6 1012.2 1012.1 0.0
23/10:30am 20.3 20.6 14.4 69 3.5 W 6 13 3 7 1012.4 1012.3 0.0
23/10:00am 19.1 18.4 12.1 64 3.9 SW 7 13 4 7 1012.6 1012.5 0.0
23/09:30am 18.8 18.5 12.8 68 3.4 WSW 6 9 3 5 1012.6 1012.5 0.0
23/09:00am 18.3 17.8 12.7 70 3.2 W 7 11 4 6 1012.7 1012.6 0.0
23/08:30am 17.6 17.2 12.9 74 2.6 W 7 11 4 6 1012.4 1012.3 0.0
23/08:00am 16.4 16.1 12.8 79 2.0 W 6 9 3 5 1012.2 1012.1 0.0
23/07:30am 16.3 16.1 13.0 81 1.8 WSW 6 9 3 5 1012.1 1011.9 0.0
23/07:00am 15.4 15.2 13.1 86 1.3 W 6 7 3 4 1011.9 1011.7 0.0
23/06:30am 15.1 15.3 13.0 87 1.2 W 4 7 2 4 1011.6 1011.4 0.0
23/06:00am 15.0 14.5 12.7 86 1.3 W 7 15 4 8 1011.4 1011.2 0.0
23/05:30am 14.8 14.3 12.7 87 1.2 W 7 13 4 7 1011.4 1011.2 0.0
23/05:00am 14.8 13.8 12.3 85 1.4 W 9 13 5 7 1011.3 1011.1 0.0
23/04:30am 15.1 13.8 12.4 84 1.5 W 11 17 6 9 1010.6 1010.4 0.0
23/04:00am 15.2 14.2 12.2 82 1.6 W 9 15 5 8 1010.1 1009.9 0.0
23/03:30am 15.7 14.7 12.3 80 1.9 WSW 9 13 5 7 1009.6 1009.4 0.0
23/03:00am 15.2 14.5 12.0 81 1.7 W 7 9 4 5 1009.8 1009.6 0.0
23/02:30am 15.5 13.6 11.7 78 2.1 W 13 19 7 10 1009.9 1009.7 0.0
23/02:00am 15.4 13.2 12.0 80 1.9 W 15 19 8 10 1009.4 1009.2 0.0
23/01:30am 16.1 14.9 12.7 80 1.9 W 11 15 6 8 1009.6 1009.4 0.0
23/01:00am 16.3 14.3 12.7 79 2.0 W 15 20 8 11 1009.3 1009.1 0.0
23/12:30am 16.6 15.4 12.9 79 2.1 WNW 11 19 6 10 1009.0 1008.8 0.0
23/12:00am 17.5 16.7 12.8 74 2.6 WNW 9 15 5 8 1008.8 1008.6 0.0
 
Date/Time
EDT
Temp
°C
App
Temp
°C
Dew
Point
Rel
Hum
%
Delta-T
°C
Wind Press
QNH
hPa
Press
MSL
hPa
Rain
since 9 am
mm
Dir
 
Spd
km/h
Gust
km/h
Spd
kts
Gust
kts
22/11:30pm 18.6 17.9 11.9 65 3.7 WNW 7 11 4 6 1008.8 1008.6 0.0
22/11:00pm 20.6 19.5 11.8 57 4.9 WSW 9 15 5 8 1008.0 1007.8 0.0
22/10:30pm 21.0 20.6 9.9 49 6.0 WNW 2 4 1 2 1007.4 1007.2 0.0
22/10:00pm 22.8 21.9 9.2 42 7.4 NNW 4 6 2 3 1007.0 1006.8 0.0
22/09:30pm 23.4 22.4 9.0 40 7.8 N 4 6 2 3 1006.9 1006.7 0.0
22/09:00pm 23.3 22.0 9.3 41 7.6 W 6 9 3 5 1006.9 1006.7 0.0
22/08:30pm 24.5 22.9 8.9 37 8.5 NW 7 17 4 9 1006.6 1006.4 0.0
22/08:00pm 24.9 23.7 9.6 38 8.4 WNW 6 13 3 7 1006.1 1005.9 0.0
22/07:30pm 26.1 24.8 9.9 36 9.0 NW 7 13 4 7 1005.6 1005.4 0.0
22/07:00pm 26.4 25.1 10.1 36 9.1 WNW 7 24 4 13 1006.0 1005.8 0.0
22/06:30pm 27.3 25.5 9.6 33 9.9 NW 9 15 5 8 1006.3 1006.1 0.0
22/06:00pm 27.9 25.1 8.7 30 10.6 NW 13 26 7 14 1006.1 1005.9 0.0
22/05:30pm 28.5 26.5 10.2 32 10.4 NW 11 30 6 16 1006.1 1005.9 0.0
22/05:00pm 28.5 27.2 11.1 34 10.0 NNW 9 17 5 9 1006.4 1006.2 0.0
22/04:30pm 28.3 27.4 12.6 38 9.2 NW 9 19 5 10 1006.7 1006.5 0.0
22/04:00pm 27.9 27.4 11.9 37 9.3 NW 6 13 3 7 1007.3 1007.1 0.0
22/03:30pm 26.8 25.0 10.9 37 9.0 NNW 11 20 6 11 1007.8 1007.6 0.0
22/03:00pm 26.7 25.2 12.0 40 8.5 NNW 11 20 6 11 1007.9 1007.7 0.0
22/02:30pm 26.1 24.9 12.9 44 7.7 NNW 11 26 6 14 1008.0 1007.8 0.0
22/02:00pm 24.6 23.5 14.4 53 6.1 NNE 13 20 7 11 1008.1 1007.9 0.0
22/01:30pm 22.9 23.3 13.7 56 5.4 NNW 4 7 2 4 1008.9 1008.7 0.0
22/01:00pm 23.5 23.0 12.5 50 6.3 W 7 17 4 9 1010.7 1010.5 0.0
22/12:30pm 22.4 22.3 15.0 63 4.4 S 9 17 5 9 1010.3 1010.1 0.0
22/12:00pm 21.8 23.4 15.9 69 3.6 ESE 2 6 1 3 1010.4 1010.2 0.0
22/11:30am 20.3 21.1 14.7 70 3.3 E 4 7 2 4 1010.8 1010.6 0.0
22/11:00am 18.6 18.6 13.5 72 2.9 E 6 7 3 4 1010.8 1010.6 0.0
22/10:30am 17.9 17.8 13.4 75 2.6 ENE 6 9 3 5 1011.2 1011.0 0.0
22/10:00am 17.6 17.1 12.7 73 2.7 ENE 7 9 4 5 1011.5 1011.3 0.0
22/09:30am 16.7 16.7 12.5 76 2.3 ESE 4 7 2 4 1011.7 1011.5 0.0
22/09:00am 15.4 14.8 12.3 82 1.7 ENE 7 9 4 5 1011.8 1011.6 0.8
22/08:30am 14.5 12.9 11.7 83 1.5 ENE 11 13 6 7 1011.4 1011.2 0.8
22/08:00am 14.5 13.6 11.3 81 1.7 E 7 11 4 6 1011.5 1011.3 0.8
22/07:30am 13.4 12.5 11.3 87 1.1 E 7 11 4 6 1011.3 1011.1 0.8
22/07:00am 12.1 10.6 10.7 91 0.7 E 9 13 5 7 1011.1 1010.9 0.8
22/06:30am 11.5 9.2 10.4 93 0.6 ENE 13 19 7 10 1010.7 1010.5 0.8
22/06:00am 11.0 9.0 10.2 95 0.4 ENE 11 15 6 8 1010.7 1010.5 0.8
22/05:30am 10.9 9.2 10.0 94 0.5 ENE 9 13 5 7 1010.6 1010.4 0.8
22/05:00am 11.3 8.6 10.2 93 0.6 E 15 24 8 13 1010.4 1010.2 0.8
22/04:30am 11.4 9.4 10.3 93 0.6 E 11 17 6 9 1010.4 1010.2 0.8
22/04:00am 11.5 10.0 10.4 93 0.6 E 9 15 5 8 1010.4 1010.2 0.8
22/03:30am 11.6 9.3 10.5 93 0.6 E 13 20 7 11 1010.3 1010.1 0.8
22/03:00am 11.9 9.6 10.6 92 0.7 E 13 19 7 10 1010.6 1010.4 0.8
22/02:30am 11.9 10.0 10.6 92 0.7 E 11 20 6 11 1010.9 1010.7 0.8
22/02:00am 11.8 9.9 10.5 92 0.7 E 11 17 6 9 1011.1 1010.9 0.8
22/01:30am 11.7 10.2 10.4 92 0.7 E 9 15 5 8 1011.7 1011.5 0.8
22/01:00am 12.1 10.6 10.7 91 0.7 E 9 15 5 8 1012.1 1011.9 0.8
22/12:30am 12.8 10.7 11.0 89 0.9 E 13 19 7 10 1012.7 1012.6 0.8
22/12:00am 13.4 11.0 11.3 87 1.1 E 15 24 8 13 1012.9 1012.8 0.8
 
Date/Time
EDT
Temp
°C
App
Temp
°C
Dew
Point
Rel
Hum
%
Delta-T
°C
Wind Press
QNH
hPa
Press
MSL
hPa
Rain
since 9 am
mm
Dir
 
Spd
km/h
Gust
km/h
Spd
kts
Gust
kts
21/11:30pm 13.3 11.2 11.2 87 1.1 ENE 13 19 7 10 1013.2 1013.1 0.8
21/11:00pm 11.9 11.3 10.5 91 0.7 E 4 6 2 3 1013.1 1013.0 0.8
21/10:30pm 12.8 13.1 10.9 88 1.0 CALM 0 0 0 0 1013.1 1013.0 0.8
21/10:00pm 13.3 13.3 11.2 87 1.1 ESE 2 4 1 2 1013.2 1013.1 0.8
21/09:30pm 13.8 14.0 10.6 81 1.7 CALM 0 0 0 0 1013.0 1012.9 0.8
21/09:00pm 15.7 16.0 10.9 73 2.6 CALM 0 0 0 0 1012.6 1012.5 0.8
21/08:30pm 16.5 16.8 11.0 70 3.0 CALM 0 0 0 0 1012.3 1012.2 0.8
21/08:00pm 17.3 16.8 10.7 65 3.6 S 4 6 2 3 1012.1 1011.9 0.8
21/07:30pm 18.7 18.4 11.5 63 4.0 SSW 4 7 2 4 1011.8 1011.6 0.8
21/07:00pm 20.2 19.3 10.6 54 5.3 SW 6 11 3 6 1011.5 1011.3 0.8
21/06:30pm 20.3 18.9 11.0 55 5.1 WSW 9 13 5 7 1011.2 1011.0 0.8
21/06:00pm 20.4 19.1 11.1 55 5.1 W 9 17 5 9 1011.0 1010.8 0.8
21/05:30pm 20.5 18.9 11.4 56 5.1 W 11 17 6 9 1010.9 1010.7 0.8
21/05:00pm 20.4 17.5 11.1 55 5.1 W 17 32 9 17 1010.8 1010.6 0.8
21/04:30pm 21.1 18.4 10.3 50 5.9 W 15 28 8 15 1010.8 1010.6 0.8

Other Formats:

Comma delimited format used in spreadsheet applications
http://www.bom.gov.au/fwo/IDV60801/IDV60801.99806.axf

JavaScript Object Notation format (JSON) in row-major order
http://www.bom.gov.au/fwo/IDV60801/IDV60801.99806.json